Flight Track Log - Related Links

Times and Time Zones

All times are in EDT time to prevent confusion due to time zone crossing. See the SWA1377 flight status page for this flight to view local times or setup timezone preferences in your user account.

Time Position Orientation Groundspeed Altitude Reporting Facility
EDT Latitude Longitude Course Direction KTS MPH feet Rate Location/Type
Thu 01:37:34 PM 42.9000 -78.7667 200° South 176 203 3,000  Level Buffalo TRACON
Thu 01:38:38 PM 42.8572 -78.6883 127° Southeast 232 267 5,500 2,323 Climbing Cleveland Center
Thu 01:39:38 PM 42.7883 -78.6792 174° South 233 268 7,800 2,600 Climbing Cleveland Center
Thu 01:40:38 PM 42.7258 -78.6697 174° South 251 289 10,700 2,628 Climbing Cleveland Center
Thu 01:41:39 PM 42.6381 -78.6639 177° South 281 323 13,100 2,750 Climbing Cleveland Center
Thu 01:42:38 PM 42.5422 -78.6583 178° South 318 366 16,200 3,176 Climbing Cleveland Center
Thu 01:43:38 PM 42.4439 -78.6475 175° South 349 402 19,400 3,250 Climbing Cleveland Center
Thu 01:44:38 PM 42.3453 -78.6083 164° South 356 410 22,700 1,800 Climbing Cleveland Center
Thu 01:45:38 PM 42.2567 -78.5381 150° Southeast 363 418 23,000 150 Climbing Cleveland Center
Thu 01:46:38 PM 42.1594 -78.4628 150° Southeast 380 437 23,000  Level Cleveland Center
Thu 01:48:00 PM 42.0484 -78.3784 151° Southeast  Level FlightAware Approximate
Thu 01:48:38 PM 41.9647 -78.3128 151° Southeast 403 464 23,000  Level Cleveland Center
Thu 01:49:38 PM 41.8672 -78.2381 150° Southeast 403 464 23,000  Level Cleveland Center
Thu 01:50:38 PM 41.7678 -78.1639 151° Southeast 410 472 23,000  Level Cleveland Center
Thu 01:51:38 PM 41.6819 -78.0558 137° Southeast 416 479 23,000  Level Cleveland Center
Thu 01:52:10 PM 41.6236 -77.9781 135° Southeast 426 490 23,000  Level New York Center
Thu 01:53:11 PM 41.5503 -77.8786 135° Southeast 410 472 23,000  Level New York Center
Thu 01:54:11 PM 41.4650 -77.7697 136° Southeast 410 472 23,000 -150 Level New York Center
Thu 01:55:11 PM 41.3819 -77.6589 135° Southeast 415 478 22,700 -645 Descending New York Center
Thu 01:56:12 PM 41.3008 -77.5483 134° Southeast 420 483 21,700 -1,000 Descending New York Center
Thu 01:57:11 PM 41.2172 -77.4406 136° Southeast 420 483 20,700 -1,008 Descending New York Center
Thu 01:58:11 PM 41.1358 -77.3333 135° Southeast 420 483 19,700 -992 Descending New York Center
Thu 01:59:12 PM 41.0561 -77.2294 135° Southeast 420 483 18,700 -958 Descending New York Center
Thu 02:00:10 PM 40.9803 -77.1286 135° Southeast 413 475 17,800 -958 Descending New York Center
Thu 02:01:11 PM 40.9022 -77.0308 137° Southeast 397 457 16,800 -942 Descending New York Center
Thu 02:02:11 PM 40.8378 -76.9453 135° Southeast 377 434 15,900 -893 Descending New York Center
Thu 02:03:12 PM 40.7536 -76.8419 137° Southeast 371 427 15,000 -458 Descending New York Center
Thu 02:04:09 PM 40.6769 -76.7528 139° Southeast 371 427 15,000  Level New York Center
Thu 02:05:10 PM 40.6119 -76.6733 137° Southeast 371 427 15,000  Level New York Center
Thu 02:06:10 PM 40.5339 -76.5658 134° Southeast 371 427 15,000  Level New York Center
Thu 02:07:11 PM 40.4681 -76.4647 131° Southeast 363 418 15,000  Level New York Center
Thu 02:08:09 PM 40.3742 -76.4650 180° South 321 369 15,000 -151 Level New York Center
Thu 02:09:10 PM 40.2900 -76.4828 189° South 331 381 14,700 -1,240 Descending New York Center
Thu 02:10:10 PM 40.1933 -76.4992 187° South 331 381 12,500 -1,636 Descending New York Center
Thu 02:11:11 PM 40.1094 -76.5111 186° South 326 375 11,400 -744 Descending New York Center
Thu 02:12:11 PM 40.0253 -76.5261 188° South 313 360 11,000 -464 Descending New York Center
Thu 02:14:12 PM 39.8500 -76.5500 186° South 299 344 10,000 -498 Descending Potomac TRACON
Thu 02:16:12 PM 39.7000 -76.6000 194° South 271 312 9,000 -767 Descending Potomac TRACON
Thu 02:17:12 PM 39.6500 -76.6500 218° Southwest 258 297 7,700 -1,289 Descending Potomac TRACON
Thu 02:18:13 PM 39.5833 -76.7167 218° Southwest 246 283 6,400 -1,339 Descending Potomac TRACON
Thu 02:19:13 PM 39.5333 -76.7667 218° Southwest 239 275 5,000 -1,200 Descending Potomac TRACON
Thu 02:20:13 PM 39.5000 -76.8333 237° Southwest 236 272 4,000 -496 Descending Potomac TRACON
Thu 02:21:14 PM 39.4333 -76.8667 201° Southwest 228 262 4,000  Level Potomac TRACON
Thu 02:22:14 PM 39.3833 -76.8833 194° South 231 266 4,000  Level Potomac TRACON
Thu 02:23:15 PM 39.3167 -76.9000 191° South 230 265 4,000 -397 Level Potomac TRACON
Thu 02:24:15 PM 39.2500 -76.9000 180° South 221 254 3,200 -1,000 Descending Potomac TRACON
Thu 02:25:15 PM 39.2000 -76.8667 153° Southeast 204 235 2,000 -645 Descending Potomac TRACON
Thu 02:26:16 PM 39.1833 -76.8000 108° East 154 177 1,900 -397 Descending Potomac TRACON
Thu 02:27:16 PM 39.1833 -76.7500 90° East 137 158 1,200 -694 Descending Potomac TRACON
Thu 02:28:17 PM 39.1833 -76.7000 90° East 132 152 500 -689 Descending Potomac TRACON
Thu 02:30:00 PM 39.1667 -76.6667 270° West  Level FlightAware Approximate
Thu 02:37:00 PM 39.1754 -76.6683 270° West  Level Estimated

Login

Don't have an account? Register now (free) for customized features, flight alerts, and more!